Flugplatz Verden-Scharnhorst

Für EDWV sind keine METAR/TAF Berichte vorhanden.
Es werden die Flugwettermeldungen vom Flugplatz Bremen in 34 km Entfernung angezeigt.

Bericht für EDDW

vom 14.11. um 09:50 UTC

Wind 8 kt aus 120°

Sichtweite 10 km oder mehr

gute Sicht, keine Wolken < 5000 ft, keine CB, keine Wettererscheinungen (CAVOK)

Temperatur 4.0°C

Taupunkt 2.0°C

Luftfeuchtigkeit 87%

Luftdruck 1006 hPa

keine wesentliche Wetteränderung innerhalb den nächsten 2 Stunden zu erwarten

EDDW 140950Z 12008KT CAVOK 04/02 Q1006 NOSIG

Prognose für EDDW

vom 14.11. um 00:00 UTC

Zwischen 00:00 UTC und 00:00 UTC

Wind 5 kt aus 140°

Sichtweite 10 km oder mehr

aufgelockert bewölkt in 2500 ft


Zwischen 00:00 und 00:00 UTC übergehend zu

Wind 8 kt aus 80°

Sichtweite 10 km oder mehr

aufgelockert bewölkt in 2500 ft


Am 15.11. zwischen 00:00 und 00:00 UTC übergehend zu

Wind 8 kt aus 80°

Sichtweite 4500 m

feuchter Dunst

aufgebrochene Bewölkung in 700 ft

TAF EDDW 140500Z 1406/1506 14005KT 9999 SCT025 BECMG 1411/1413 08008KT BECMG 1501/1503 4500 BR BKN007
Impressum